Time;durP1;ratioP1;P1;durP2;ratioP2;P2;SDS_P1;SDS_P2;PMS_P1;PMS_P2;Temp;Humidity;BMP_temperature;BMP_pressure;BME280_temperature;BME280_humidity;BME280_pressure;Samples;Min_cycle;Max_cycle;Signal;HPM_P1;HPM_P2
2023/06/09 00:02:06;;;;;;;8.43;6.10;;;;;;;20.58;100.00;99989.41;5078715;28;20059;-63
2023/06/09 00:04:35;;;;;;;6.78;6.07;;;;;;;20.54;100.00;99998.19;5070467;28;20550;-63
2023/06/09 00:07:02;;;;;;;11.93;6.20;;;;;;;20.51;100.00;99993.16;5082206;28;20384;-64
2023/06/09 00:09:29;;;;;;;7.85;6.18;;;;;;;20.47;100.00;99986.47;5068858;28;20541;-63
2023/06/09 00:11:55;;;;;;;9.75;6.35;;;;;;;20.44;100.00;99987.69;5078830;28;20047;-63
2023/06/09 00:14:20;;;;;;;10.07;6.63;;;;;;;20.43;100.00;99986.00;5071675;28;20548;-63
2023/06/09 00:16:46;;;;;;;8.45;6.47;;;;;;;20.39;100.00;99990.19;5082959;28;20103;-63
2023/06/09 00:19:19;;;;;;;10.00;6.70;;;;;;;20.38;100.00;99987.69;5070172;28;20031;-63
2023/06/09 00:21:49;;;;;;;8.88;6.47;;;;;;;20.35;100.00;99988.94;5075780;28;20062;-63
2023/06/09 00:24:16;;;;;;;8.00;6.32;;;;;;;20.35;100.00;99985.38;5074910;28;20031;-63
2023/06/09 00:26:41;;;;;;;8.52;6.60;;;;;;;20.34;100.00;99981.78;5067594;28;20032;-63
2023/06/09 00:29:07;;;;;;;8.35;6.90;;;;;;;20.33;100.00;99995.63;5065647;28;20040;-63
2023/06/09 00:31:32;;;;;;;7.13;6.32;;;;;;;20.33;100.00;100003.78;5074944;28;20093;-64
2023/06/09 00:33:57;;;;;;;7.80;6.28;;;;;;;20.29;100.00;99999.81;5074047;28;20028;-63
2023/06/09 00:36:23;;;;;;;9.68;6.60;;;;;;;20.31;100.00;100014.06;5082953;28;20471;-63
2023/06/09 00:38:48;;;;;;;13.82;7.07;;;;;;;20.26;100.00;100016.56;5066796;28;20032;-63
2023/06/09 00:41:14;;;;;;;10.52;6.57;;;;;;;20.24;100.00;100030.38;5065026;28;20024;-63
2023/06/09 00:43:40;;;;;;;7.43;6.70;;;;;;;20.19;100.00;100025.53;5064771;28;20029;-63
2023/06/09 00:46:06;;;;;;;9.70;6.78;;;;;;;20.16;100.00;100017.75;5063122;28;20024;-63
2023/06/09 00:48:32;;;;;;;12.27;7.55;;;;;;;20.15;100.00;100005.19;5061487;28;20467;-63
2023/06/09 00:50:59;;;;;;;7.93;6.90;;;;;;;20.13;100.00;100006.47;5064724;28;20411;-63
2023/06/09 00:53:27;;;;;;;8.95;7.00;;;;;;;20.10;100.00;99998.66;4712129;28;9999748;-63
2023/06/09 00:55:53;;;;;;;8.65;6.57;;;;;;;20.13;100.00;100001.00;5062889;28;20025;-63
2023/06/09 00:58:19;;;;;;;10.43;7.10;;;;;;;20.14;100.00;100002.69;5063006;28;20407;-64
2023/06/09 01:00:45;;;;;;;17.13;9.77;;;;;;;20.10;100.00;99983.16;5068384;28;20045;-64
2023/06/09 01:03:10;;;;;;;16.17;8.60;;;;;;;20.06;100.00;99962.81;5071550;28;20089;-63
2023/06/09 01:05:38;;;;;;;15.93;8.95;;;;;;;19.99;100.00;99961.09;5070236;28;20479;-63
2023/06/09 01:08:21;;;;;;;13.48;7.75;;;;;;;19.98;100.00;99965.72;5070351;28;20043;-63
2023/06/09 01:11:12;;;;;;;12.07;7.38;;;;;;;20.01;100.00;99968.03;5073131;28;20031;-63
2023/06/09 01:14:17;;;;;;;11.82;7.82;;;;;;;19.99;100.00;99972.84;5071100;28;20395;-63
2023/06/09 01:17:07;;;;;;;10.65;7.28;;;;;;;19.95;100.00;99971.56;5040381;28;20148;-63
2023/06/09 01:19:40;;;;;;;10.35;6.68;;;;;;;19.93;100.00;99978.28;5066262;28;20024;-63
2023/06/09 01:22:24;;;;;;;10.30;7.30;;;;;;;19.85;100.00;99973.84;5066471;28;20356;-63
2023/06/09 01:25:04;;;;;;;7.65;6.55;;;;;;;19.88;100.00;99978.03;5069223;28;20038;-63
2023/06/09 01:27:33;;;;;;;8.73;6.40;;;;;;;19.82;100.00;99968.81;5069097;28;20043;-63
2023/06/09 01:30:00;;;;;;;9.07;6.38;;;;;;;19.86;100.00;99970.06;5068887;28;20387;-63
2023/06/09 01:32:27;;;;;;;7.13;6.43;;;;;;;19.85;100.00;99954.78;5071486;28;20031;-63
2023/06/09 01:34:53;;;;;;;7.97;6.93;;;;;;;19.85;100.00;99949.34;5072165;28;20478;-63
2023/06/09 01:37:20;;;;;;;14.52;7.03;;;;;;;19.85;100.00;99949.34;5070205;28;20103;-63
2023/06/09 01:39:46;;;;;;;7.72;6.68;;;;;;;19.83;100.00;99942.44;5071267;28;20038;-63
2023/06/09 01:42:11;;;;;;;10.55;6.80;;;;;;;19.85;100.00;99954.78;5068692;28;20024;-63
2023/06/09 01:44:37;;;;;;;8.63;6.60;;;;;;;19.84;100.00;99944.94;5069123;28;20403;-63
2023/06/09 01:47:03;;;;;;;9.07;7.38;;;;;;;19.78;100.00;99939.47;5070440;28;20075;-63
2023/06/09 01:49:41;;;;;;;11.27;7.50;;;;;;;19.85;100.00;99948.50;5071745;28;20036;-63
2023/06/09 01:52:18;;;;;;;9.23;7.10;;;;;;;19.73;100.00;99929.19;5067215;28;20028;-63
2023/06/09 01:54:54;;;;;;;7.90;6.70;;;;;;;19.82;100.00;99951.63;5068960;28;20032;-63
2023/06/09 01:58:00;;;;;;;7.80;7.03;;;;;;;19.61;100.00;99909.03;5071444;28;20020;-63
2023/06/09 02:00:27;;;;;;;8.48;7.57;;;;;;;19.74;100.00;99928.13;5047179;28;20500;-63
2023/06/09 02:02:58;;;;;;;9.20;7.55;;;;;;;19.72;100.00;99924.78;5068139;28;20056;-63
2023/06/09 02:05:25;;;;;;;9.95;8.40;;;;;;;19.73;100.00;99926.47;5065932;28;20020;-64
2023/06/09 02:07:53;;;;;;;11.85;8.65;;;;;;;19.77;100.00;99935.91;5072501;28;20082;-63
2023/06/09 02:10:21;;;;;;;10.30;9.18;;;;;;;19.76;100.00;99922.50;5070434;28;20056;-63
2023/06/09 02:12:46;;;;;;;9.23;7.93;;;;;;;19.74;100.00;99925.41;5063352;28;20035;-63
2023/06/09 02:15:12;;;;;;;12.35;9.15;;;;;;;19.74;100.00;99924.59;5065719;28;20024;-63
2023/06/09 02:17:39;;;;;;;9.20;8.30;;;;;;;19.71;100.00;99923.13;5068184;28;20097;-63
2023/06/09 02:20:08;;;;;;;10.15;8.90;;;;;;;19.72;100.00;99930.25;5065836;28;20046;-63
2023/06/09 02:22:35;;;;;;;11.35;9.50;;;;;;;19.71;100.00;99933.16;5068077;28;20036;-63
2023/06/09 02:25:01;;;;;;;10.93;8.90;;;;;;;19.69;100.00;99925.19;5068857;28;20024;-63
2023/06/09 02:27:27;;;;;;;10.60;9.15;;;;;;;19.66;100.00;99924.75;5067603;28;20066;-63
2023/06/09 02:29:52;;;;;;;12.85;9.68;;;;;;;19.70;100.00;99926.88;5078095;28;20028;-63
2023/06/09 02:32:17;;;;;;;11.45;9.70;;;;;;;19.69;100.00;99927.91;5067967;28;20453;-63
2023/06/09 02:34:45;;;;;;;11.27;10.15;;;;;;;19.60;100.00;99915.53;5067697;28;20063;-63
2023/06/09 02:37:10;;;;;;;12.13;9.90;;;;;;;19.60;100.00;99914.66;5068712;28;20048;-63
2023/06/09 02:39:36;;;;;;;12.15;10.30;;;;;;;19.58;100.00;99914.88;5068931;28;20059;-63
2023/06/09 02:42:02;;;;;;;10.43;9.43;;;;;;;19.69;100.00;99937.94;5068087;28;20028;-63
2023/06/09 02:44:28;;;;;;;11.00;10.00;;;;;;;19.68;100.00;99937.13;5067606;28;20064;-63
2023/06/09 02:46:54;;;;;;;13.50;11.63;;;;;;;19.68;100.00;99934.41;5068445;28;20028;-63
2023/06/09 02:49:19;;;;;;;11.55;10.35;;;;;;;19.66;100.00;99931.03;5068499;28;20081;-63
2023/06/09 02:51:45;;;;;;;14.55;11.15;;;;;;;19.67;100.00;99938.16;5068525;28;20057;-63
2023/06/09 02:54:11;;;;;;;15.65;11.23;;;;;;;19.67;100.00;99935.44;5067352;28;20532;-63
2023/06/09 02:56:36;;;;;;;12.77;10.23;;;;;;;19.68;100.00;99936.28;5068772;28;20094;-63
2023/06/09 02:59:02;;;;;;;12.35;10.55;;;;;;;19.69;100.00;99935.22;5068144;28;20025;-63
2023/06/09 03:01:34;;;;;;;11.05;9.95;;;;;;;19.71;100.00;99941.31;5068151;28;20279;-63
2023/06/09 03:04:06;;;;;;;11.98;10.77;;;;;;;19.67;100.00;99924.53;5066967;28;20025;-63
2023/06/09 03:06:33;;;;;;;11.55;10.45;;;;;;;19.72;100.00;99935.69;5067744;28;20024;-63
2023/06/09 03:09:02;;;;;;;13.63;10.88;;;;;;;19.72;100.00;99938.41;5066346;28;20032;-63
2023/06/09 03:11:28;;;;;;;11.95;10.02;;;;;;;19.60;100.00;99926.41;5067786;28;20063;-63
2023/06/09 03:13:53;;;;;;;12.50;10.70;;;;;;;19.63;100.00;99936.03;5068454;28;20028;-63
2023/06/09 03:16:19;;;;;;;10.90;9.80;;;;;;;19.72;100.00;99956.59;5068064;28;20059;-63
2023/06/09 03:18:46;;;;;;;13.70;10.43;;;;;;;19.70;100.00;99953.25;5064908;28;20024;-63
2023/06/09 03:21:13;;;;;;;12.73;9.55;;;;;;;19.65;100.00;99944.84;5066859;28;20028;-63
2023/06/09 03:23:40;;;;;;;10.70;9.60;;;;;;;19.71;100.00;99960.38;5068036;28;20036;-63
2023/06/09 03:26:06;;;;;;;15.52;9.55;;;;;;;19.70;100.00;99961.44;5085032;28;20379;-63
2023/06/09 03:28:32;;;;;;;10.90;9.90;;;;;;;19.69;100.00;99965.16;5067713;28;20032;-62
2023/06/09 03:30:58;;;;;;;10.73;9.65;;;;;;;19.71;100.00;99971.25;5067881;28;20081;-63
2023/06/09 03:33:25;;;;;;;9.98;8.98;;;;;;;19.62;100.00;99964.28;5067854;28;20043;-63
2023/06/09 03:35:50;;;;;;;9.75;8.85;;;;;;;19.70;100.00;99977.75;5070466;28;20021;-63
2023/06/09 03:38:16;;;;;;;10.95;9.57;;;;;;;19.69;100.00;99978.78;5067544;28;20027;-63
2023/06/09 03:40:42;;;;;;;10.30;9.23;;;;;;;19.69;100.00;99978.78;5067773;28;20135;-63
2023/06/09 03:43:07;;;;;;;10.68;9.55;;;;;;;19.67;100.00;99978.97;5067464;28;20024;-63
2023/06/09 03:45:34;;;;;;;12.10;9.90;;;;;;;19.59;100.00;99976.44;5067642;28;20025;-63
2023/06/09 03:48:00;;;;;;;10.30;9.18;;;;;;;19.64;100.00;99990.25;5075981;28;20514;-63
2023/06/09 03:50:26;;;;;;;11.55;9.10;;;;;;;19.56;100.00;99979.53;5087943;28;20106;-63
2023/06/09 03:52:52;;;;;;;10.98;9.02;;;;;;;19.58;100.00;99991.06;5087603;28;20327;-63
2023/06/09 03:55:22;;;;;;;9.82;8.75;;;;;;;19.59;100.00;100019.09;5075431;28;20025;-63
2023/06/09 03:57:47;;;;;;;9.52;8.52;;;;;;;19.59;100.00;100028.13;5067412;28;20798;-63
2023/06/09 04:00:15;;;;;;;9.93;8.60;;;;;;;19.58;100.00;100050.09;5066991;28;20067;-63
2023/06/09 04:02:40;;;;;;;10.55;8.45;;;;;;;19.56;100.00;100054.88;5065101;28;20123;-63
2023/06/09 04:05:06;;;;;;;9.82;8.02;;;;;;;19.53;100.00;100058.00;5067491;28;20031;-63
2023/06/09 04:07:32;;;;;;;11.75;8.27;;;;;;;19.53;100.00;100061.56;5082884;28;20035;-63
2023/06/09 04:09:57;;;;;;;9.20;8.00;;;;;;;19.52;100.00;100059.91;5086984;28;20043;-63
2023/06/09 04:12:23;;;;;;;10.65;8.20;;;;;;;19.47;100.00;100051.47;5081178;28;20034;-63
2023/06/09 04:14:48;;;;;;;9.80;7.30;;;;;;;19.50;100.00;100061.09;5066859;28;20028;-63
2023/06/09 04:17:14;;;;;;;8.15;6.88;;;;;;;19.49;100.00;100057.56;5066958;28;20036;-63
2023/06/09 04:19:39;;;;;;;8.25;7.43;;;;;;;19.46;100.00;100048.94;5067577;28;20036;-63
2023/06/09 04:22:07;;;;;;;9.25;6.55;;;;;;;19.50;100.00;100052.94;5077776;28;20032;-64
2023/06/09 04:24:33;;;;;;;12.68;7.28;;;;;;;19.51;100.00;100062.81;5074677;28;20081;-63
2023/06/09 05:07:25;;;;;;;9.63;7.25;;;;;;;19.25;100.00;100048.97;5148503;27;20377;-63
2023/06/09 05:09:50;;;;;;;11.57;8.93;;;;;;;19.23;100.00;100049.16;5148940;27;20045;-62
2023/06/09 05:12:16;;;;;;;14.65;8.75;;;;;;;19.29;100.00;100053.00;5148410;27;20031;-62
2023/06/09 05:14:42;;;;;;;10.02;7.88;;;;;;;19.33;100.00;100041.53;5148589;27;20117;-62
2023/06/09 05:17:07;;;;;;;11.88;8.27;;;;;;;19.28;100.00;100033.13;5148569;27;20059;-63
2023/06/09 05:19:33;;;;;;;9.98;8.32;;;;;;;19.28;100.00;100024.13;5148655;27;20498;-62
2023/06/09 05:21:58;;;;;;;8.95;7.82;;;;;;;19.35;100.00;100042.16;5148494;27;20594;-63
2023/06/09 05:24:24;;;;;;;11.05;8.35;;;;;;;19.32;100.00;100031.66;5148234;27;20088;-63
2023/06/09 05:26:50;;;;;;;11.65;8.82;;;;;;;19.36;100.00;100034.84;5148826;27;20076;-63
2023/06/09 05:29:16;;;;;;;11.80;9.15;;;;;;;19.35;100.00;100041.34;5143384;27;20554;-64
2023/06/09 05:31:41;;;;;;;10.93;9.50;;;;;;;19.25;100.00;100022.59;5145715;27;20114;-63
2023/06/09 05:34:07;;;;;;;14.65;8.90;;;;;;;19.36;100.00;100040.28;5139326;27;20038;-63
2023/06/09 05:36:32;;;;;;;10.07;8.98;;;;;;;19.33;100.00;100044.25;5145386;27;20017;-64
2023/06/09 05:38:57;;;;;;;10.55;9.15;;;;;;;19.31;100.00;100040.06;5146475;27;20022;-64
2023/06/09 05:41:23;;;;;;;15.07;9.73;;;;;;;19.36;100.00;100046.59;5146754;27;20031;-63
2023/06/09 05:43:49;;;;;;;10.55;9.02;;;;;;;19.36;100.00;100048.44;5144443;27;20035;-64
2023/06/09 05:46:14;;;;;;;10.27;9.07;;;;;;;19.35;100.00;100050.31;5147359;27;20019;-64
2023/06/09 05:48:39;;;;;;;15.45;9.38;;;;;;;19.32;100.00;100044.44;5147189;27;20118;-63
2023/06/09 05:51:05;;;;;;;10.55;9.45;;;;;;;19.34;100.00;100053.25;5147269;27;20030;-64
2023/06/09 05:53:32;;;;;;;14.75;9.93;;;;;;;19.32;100.00;100041.72;5146793;27;20022;-63
2023/06/09 05:55:58;;;;;;;12.82;9.65;;;;;;;19.33;100.00;100057.00;5146554;27;20071;-63
2023/06/09 05:58:24;;;;;;;16.17;9.50;;;;;;;19.32;100.00;100048.00;5146551;27;20428;-63
2023/06/09 06:00:51;;;;;;;12.05;9.15;;;;;;;19.33;100.00;100048.84;5146721;27;20122;-64
2023/06/09 06:03:17;;;;;;;9.93;8.60;;;;;;;19.33;100.00;100055.13;5147413;27;20390;-79
2023/06/09 06:05:44;;;;;;;10.02;9.02;;;;;;;19.25;100.00;100038.91;5145970;27;20047;-78
2023/06/09 06:08:10;;;;;;;14.05;9.13;;;;;;;19.32;100.00;100050.72;5131725;27;20505;-78
2023/06/09 06:10:35;;;;;;;13.63;9.68;;;;;;;19.31;100.00;100059.09;5132402;27;20051;-78
2023/06/09 06:13:03;;;;;;;12.77;10.07;;;;;;;19.30;100.00;100057.41;5133925;27;20143;-79
2023/06/09 06:15:29;;;;;;;15.13;10.40;;;;;;;19.28;100.00;100059.50;5132758;27;20471;-78
2023/06/09 06:17:54;;;;;;;14.27;10.73;;;;;;;19.23;100.00;100064.63;5132233;27;20050;-78
2023/06/09 06:20:20;;;;;;;14.02;10.63;;;;;;;19.27;100.00;100063.22;5133375;27;20498;-79
2023/06/09 06:22:46;;;;;;;12.77;10.25;;;;;;;19.21;100.00;100062.09;5133969;27;20079;-78
2023/06/09 06:25:13;;;;;;;13.95;11.07;;;;;;;19.24;100.00;100074.47;5133955;27;20031;-79
2023/06/09 06:27:39;;;;;;;15.35;11.38;;;;;;;19.22;100.00;100069.22;5133975;27;20412;-79
2023/06/09 06:30:06;;;;;;;13.27;10.48;;;;;;;19.14;100.00;100053.06;5131557;27;20035;-79
2023/06/09 06:32:32;;;;;;;15.25;10.70;;;;;;;19.15;100.00;100060.16;5133554;27;20424;-79
2023/06/09 06:34:57;;;;;;;13.02;9.50;;;;;;;19.17;100.00;100060.81;5133864;27;20071;-78
2023/06/09 06:37:23;;;;;;;12.02;10.70;;;;;;;19.21;100.00;100066.69;5134097;27;20038;-78
2023/06/09 06:39:48;;;;;;;12.52;10.32;;;;;;;19.21;100.00;100067.53;5132240;27;20030;-79
2023/06/09 06:42:13;;;;;;;13.15;10.32;;;;;;;19.16;100.00;100061.88;5133579;27;20394;-79
2023/06/09 06:44:39;;;;;;;12.95;10.25;;;;;;;19.12;100.00;100057.00;5133590;27;20027;-79
2023/06/09 06:47:05;;;;;;;11.77;10.02;;;;;;;19.17;100.00;100066.25;5132392;27;20019;-78
2023/06/09 06:49:30;;;;;;;10.73;9.70;;;;;;;19.16;100.00;100055.56;5133390;27;20039;-79
2023/06/09 06:51:56;;;;;;;15.07;11.50;;;;;;;19.14;100.00;100055.78;5133619;27;20030;-78
2023/06/09 06:54:21;;;;;;;12.35;11.05;;;;;;;19.22;100.00;100068.41;5132258;27;20497;-79
2023/06/09 06:56:46;;;;;;;12.32;9.80;;;;;;;19.14;100.00;100060.34;5133141;27;20026;-79
2023/06/09 06:59:12;;;;;;;11.88;9.65;;;;;;;19.14;100.00;100063.06;5132997;27;20033;-79
2023/06/09 07:01:38;;;;;;;17.30;12.07;;;;;;;19.21;100.00;100064.81;5132683;27;20019;-78
2023/06/09 07:04:04;;;;;;;12.82;11.40;;;;;;;19.23;100.00;100070.91;5133339;27;20031;-79
2023/06/09 07:06:31;;;;;;;14.82;11.38;;;;;;;19.24;100.00;100072.59;5131223;27;20513;-78
2023/06/09 07:08:57;;;;;;;13.10;11.70;;;;;;;19.23;100.00;100065.47;5132585;27;20023;-79
2023/06/09 07:11:23;;;;;;;15.50;12.32;;;;;;;19.25;100.00;100068.81;5133093;27;20015;-79
2023/06/09 07:13:51;;;;;;;15.90;12.13;;;;;;;19.25;100.00;100068.00;5133263;27;20034;-78
2023/06/09 07:16:17;;;;;;;13.27;11.90;;;;;;;19.19;100.00;100058.72;5132969;27;20054;-79
2023/06/09 07:18:42;;;;;;;14.95;12.70;;;;;;;19.25;100.00;100076.97;5130299;27;20121;-78
2023/06/09 07:21:07;;;;;;;13.30;11.70;;;;;;;19.19;100.00;100066.88;5132783;27;20378;-79
2023/06/09 07:23:33;;;;;;;14.15;11.77;;;;;;;19.21;100.00;100061.25;5135159;27;20031;-79
2023/06/09 07:25:58;;;;;;;16.30;12.27;;;;;;;19.19;100.00;100052.47;5132639;27;20030;-78
2023/06/09 07:28:24;;;;;;;12.63;10.82;;;;;;;19.29;100.00;100064.72;5132628;27;20048;-79
2023/06/09 07:30:50;;;;;;;15.32;11.60;;;;;;;19.28;100.00;100064.94;5132408;27;20092;-78
2023/06/09 07:33:16;;;;;;;11.23;9.93;;;;;;;19.30;100.00;100063.69;5132300;27;20023;-78
2023/06/09 07:35:42;;;;;;;13.75;10.88;;;;;;;19.31;100.00;100069.97;5132647;27;20090;-79
2023/06/09 07:38:08;;;;;;;12.75;9.75;;;;;;;19.32;100.00;100067.03;5132275;27;20023;-79
2023/06/09 07:40:33;;;;;;;12.15;10.50;;;;;;;19.28;100.00;100060.31;5132351;27;20079;-79
2023/06/09 07:42:59;;;;;;;12.38;10.70;;;;;;;19.28;100.00;100051.34;5132519;27;20105;-79
2023/06/09 07:45:25;;;;;;;11.38;9.88;;;;;;;19.27;100.00;100053.19;5132638;27;20023;-78
2023/06/09 07:47:50;;;;;;;10.65;9.55;;;;;;;19.37;100.00;100064.56;5132003;27;20031;-79
2023/06/09 07:50:17;;;;;;;11.18;10.02;;;;;;;19.39;100.00;100067.09;5132448;27;20031;-79
2023/06/09 07:52:43;;;;;;;11.65;10.35;;;;;;;19.41;100.00;100068.56;5132143;27;20022;-79
2023/06/09 07:55:08;;;;;;;11.93;10.48;;;;;;;19.38;100.00;100070.88;5132386;27;20075;-79
2023/06/09 07:57:34;;;;;;;11.57;10.35;;;;;;;19.43;100.00;100074.66;5130931;27;20042;-79
2023/06/09 07:59:59;;;;;;;10.55;9.52;;;;;;;19.44;100.00;100086.41;5130547;27;20039;-79
2023/06/09 08:02:25;;;;;;;13.30;10.18;;;;;;;19.43;100.00;100077.41;5131937;27;20027;-79
2023/06/09 08:04:51;;;;;;;11.02;9.82;;;;;;;19.42;100.00;100078.44;5131451;27;20035;-79
2023/06/09 08:07:16;;;;;;;14.68;10.15;;;;;;;19.41;100.00;100071.28;5130259;27;20057;-80
2023/06/09 08:09:42;;;;;;;12.07;10.73;;;;;;;19.43;100.00;100082.84;5131849;27;20030;-79
2023/06/09 08:12:07;;;;;;;12.35;11.05;;;;;;;19.48;100.00;100093.94;5131432;27;20027;-79
2023/06/09 08:14:33;;;;;;;12.40;10.95;;;;;;;19.52;100.00;100094.41;5131474;27;20027;-79
2023/06/09 08:16:59;;;;;;;13.18;11.18;;;;;;;19.51;100.00;100095.44;5131493;27;20065;-78
2023/06/09 08:19:25;;;;;;;11.82;10.35;;;;;;;19.50;100.00;100097.31;5132114;27;20054;-79
2023/06/09 08:21:50;;;;;;;11.48;10.35;;;;;;;19.54;100.00;100098.59;5131576;27;20042;-79
2023/06/09 08:24:16;;;;;;;12.10;10.90;;;;;;;19.52;100.00;100092.53;5131528;27;20031;-79
2023/06/09 08:26:43;;;;;;;12.02;10.88;;;;;;;19.57;100.00;100098.22;5131548;27;20098;-78
2023/06/09 08:29:10;;;;;;;12.68;10.43;;;;;;;19.59;100.00;100112.47;5129051;27;20034;-78
2023/06/09 08:31:37;;;;;;;12.80;11.48;;;;;;;19.61;100.00;100109.56;5130911;27;20076;-78
2023/06/09 08:34:02;;;;;;;11.82;10.57;;;;;;;19.55;100.00;100099.47;5131422;27;20034;-78
2023/06/09 08:36:28;;;;;;;11.07;9.98;;;;;;;19.58;100.00;100112.66;5131586;27;20418;-78
2023/06/09 08:38:53;;;;;;;12.43;11.13;;;;;;;19.64;100.00;100114.59;5131634;27;20068;-79
2023/06/09 08:41:24;;;;;;;11.98;10.77;;;;;;;19.62;100.00;100109.34;5131518;27;20031;-78
2023/06/09 08:43:50;;;;;;;11.30;9.85;;;;;;;19.59;100.00;100104.31;5130978;27;20028;-78
2023/06/09 08:46:19;;;;;;;11.57;10.27;;;;;;;19.47;100.00;100085.97;5125937;27;20034;-78
2023/06/09 08:48:57;;;;;;;10.05;9.07;;;;;;;19.60;100.00;100108.69;5129286;27;20019;-78
2023/06/09 08:51:23;;;;;;;10.27;9.27;;;;;;;19.60;100.00;100114.16;5130245;27;20462;-79
2023/06/09 08:53:52;;;;;;;10.02;9.02;;;;;;;19.55;100.00;100108.47;5129705;27;20063;-78
2023/06/09 08:56:19;;;;;;;11.30;10.10;;;;;;;19.53;100.00;100107.81;5128689;28;20119;-78
2023/06/09 08:58:47;;;;;;;9.82;8.82;;;;;;;19.60;100.00;100118.72;5130587;28;20118;-78
2023/06/09 09:01:14;;;;;;;9.93;8.70;;;;;;;19.58;100.00;100113.50;5130651;27;20155;-78
2023/06/09 09:03:40;;;;;;;10.35;9.23;;;;;;;19.54;100.00;100104.03;5130257;27;20454;-78
2023/06/09 09:06:05;;;;;;;9.98;9.05;;;;;;;19.54;100.00;100101.31;5130290;27;20126;-78
2023/06/09 09:08:31;;;;;;;9.43;8.52;;;;;;;19.60;100.00;100125.03;5130224;27;20511;-78
2023/06/09 09:10:56;;;;;;;10.23;9.18;;;;;;;19.55;100.00;100097.59;5130689;27;20023;-78
2023/06/09 09:13:29;;;;;;;13.57;10.05;;;;;;;19.61;100.00;100104.13;5129126;28;20057;-78
2023/06/09 09:15:55;;;;;;;12.50;9.57;;;;;;;19.60;100.00;100105.97;5130842;27;20102;-78
2023/06/09 09:18:20;;;;;;;9.98;8.98;;;;;;;19.64;100.00;100106.44;5130928;27;20031;-78
2023/06/09 09:20:46;;;;;;;10.10;9.10;;;;;;;19.65;100.00;100102.66;5130720;27;20027;-78
2023/06/09 09:23:11;;;;;;;9.75;8.65;;;;;;;19.66;100.00;100104.34;5130531;27;20026;-78
2023/06/09 09:25:37;;;;;;;10.25;8.90;;;;;;;19.66;100.00;100107.91;5130620;27;20023;-78
2023/06/09 09:28:06;;;;;;;11.02;9.15;;;;;;;19.63;100.00;100102.88;5130882;27;20104;-78
2023/06/09 09:30:50;;;;;;;10.45;8.90;;;;;;;19.66;100.00;100107.91;5130376;27;20034;-78
2023/06/09 09:33:21;;;;;;;10.50;9.40;;;;;;;19.67;100.00;100109.59;5128324;27;21843;-78
2023/06/09 09:35:50;;;;;;;10.15;9.25;;;;;;;19.67;100.00;100101.44;5129935;27;20035;-78
2023/06/09 09:38:19;;;;;;;11.10;10.00;;;;;;;19.71;100.00;100101.88;5130477;27;20486;-78
2023/06/09 09:40:47;;;;;;;13.40;10.10;;;;;;;19.73;100.00;100108.81;5130596;27;20682;-78
2023/06/09 09:43:13;;;;;;;10.50;9.40;;;;;;;19.73;100.00;100105.22;5133304;27;20027;-77
2023/06/09 09:45:49;;;;;;;10.63;9.52;;;;;;;19.70;100.00;100098.31;5133509;27;20027;-78
2023/06/09 09:48:17;;;;;;;10.25;9.07;;;;;;;19.76;100.00;100111.13;5134363;27;20030;-78
2023/06/09 09:50:44;;;;;;;10.18;9.18;;;;;;;19.78;100.00;100103.63;5134574;27;20025;-77
2023/06/09 09:53:10;;;;;;;10.90;8.82;;;;;;;19.82;100.00;100104.91;5134468;27;20520;-78
2023/06/09 09:55:38;;;;;;;10.32;9.32;;;;;;;19.81;100.00;100088.75;5131987;27;20049;-77
2023/06/09 09:58:06;;;;;;;10.73;9.65;;;;;;;19.89;100.00;100100.31;5133229;27;20015;-77
2023/06/09 10:00:37;;;;;;;12.40;10.10;;;;;;;19.92;100.00;100105.38;5132503;27;20035;-78
2023/06/09 10:03:15;;;;;;;10.23;9.15;;;;;;;19.93;100.00;100101.59;5132321;27;20430;-78
2023/06/09 10:05:49;;;;;;;9.52;8.52;;;;;;;19.90;100.00;100091.13;5133336;27;20471;-78
2023/06/09 10:08:26;;;;;;;10.23;7.85;;;;;;;19.97;100.00;100105.63;5130263;27;20074;-77
2023/06/09 10:10:53;;;;;;;11.45;8.93;;;;;;;19.99;100.00;100097.22;5134170;27;20495;-77
2023/06/09 10:13:20;;;;;;;9.25;8.38;;;;;;;19.99;100.00;100092.63;5136634;27;20109;-77
2023/06/09 10:15:45;;;;;;;9.95;8.95;;;;;;;19.99;100.00;100092.63;5133719;27;20019;-77
2023/06/09 10:18:15;;;;;;;9.50;8.60;;;;;;;20.02;100.00;100085.94;5132725;27;20386;-78
2023/06/09 10:20:42;;;;;;;9.68;8.68;;;;;;;20.03;100.00;100087.66;5133260;27;20058;-78
2023/06/09 10:23:08;;;;;;;9.57;8.65;;;;;;;20.11;100.00;100091.06;5131761;27;20079;-78
2023/06/09 10:25:34;;;;;;;9.77;8.20;;;;;;;20.11;100.00;100077.47;5132956;27;20034;-78
2023/06/09 10:28:00;;;;;;;8.73;7.90;;;;;;;20.08;100.00;100071.53;5133485;27;20023;-78
2023/06/09 10:30:26;;;;;;;8.90;8.00;;;;;;;20.16;100.00;100080.41;5133508;27;20494;-78
2023/06/09 10:33:13;;;;;;;8.13;7.43;;;;;;;20.19;100.00;100082.72;5129282;27;20030;-78
2023/06/09 10:35:40;;;;;;;8.77;7.97;;;;;;;20.25;100.00;100088.41;5132314;27;20573;-78
2023/06/09 10:38:39;;;;;;;8.45;7.75;;;;;;;20.29;100.00;100086.97;5133072;27;20101;-77
2023/06/09 10:41:15;;;;;;;8.32;7.38;;;;;;;20.26;100.00;100074.59;5133279;27;20506;-78
2023/06/09 10:43:59;;;;;;;7.72;7.03;;;;;;;20.33;100.00;100083.63;5128979;27;20375;-78
2023/06/09 10:46:47;;;;;;;8.07;7.38;;;;;;;20.32;100.00;100079.25;5132540;27;20026;-77
2023/06/09 10:49:35;;;;;;;7.82;7.13;;;;;;;20.40;100.00;100083.66;5130999;27;20373;-78
2023/06/09 10:52:01;;;;;;;7.63;6.93;;;;;;;20.37;100.00;100071.28;5131100;27;20122;-78
2023/06/09 10:54:29;;;;;;;10.50;8.82;;;;;;;20.44;100.00;100074.88;5131414;27;20047;-78
2023/06/09 10:57:00;;;;;;;8.77;7.88;;;;;;;20.46;100.00;100074.66;5131287;27;20027;-78
2023/06/09 10:59:25;;;;;;;8.15;6.70;;;;;;;20.55;100.00;100081.63;5131165;27;20401;-78
2023/06/09 11:02:11;;;;;;;7.38;6.68;;;;;;;20.56;100.00;100072.41;5133095;27;20041;-78
2023/06/09 11:04:45;;;;;;;8.38;7.60;;;;;;;20.59;100.00;100063.81;5121271;27;20497;-78
2023/06/09 11:07:12;;;;;;;8.75;7.95;;;;;;;20.60;100.00;100062.78;5132047;27;20034;-78
2023/06/09 11:09:39;;;;;;;7.95;7.20;;;;;;;20.63;100.00;100062.38;5132517;27;20084;-78
2023/06/09 11:12:05;;;;;;;6.95;6.35;;;;;;;20.64;100.00;100058.59;5131603;27;20031;-77
2023/06/09 11:14:46;;;;;;;8.55;7.75;;;;;;;20.66;100.00;100051.06;5130362;27;20050;-77
2023/06/09 11:17:15;;;;;;;7.68;7.00;;;;;;;20.69;100.00;100053.34;5129431;27;20034;-77
2023/06/09 11:19:41;;;;;;;7.95;7.25;;;;;;;20.67;100.00;100042.66;5132446;27;20394;-78
2023/06/09 11:22:09;;;;;;;6.88;6.28;;;;;;;20.73;100.00;100038.28;5132496;27;20031;-77
2023/06/09 11:24:51;;;;;;;7.75;7.05;;;;;;;20.73;100.00;100036.38;5130947;27;20030;-77
2023/06/09 11:27:21;;;;;;;7.82;7.03;;;;;;;20.79;100.00;100043.75;5129295;27;20398;-77
2023/06/09 11:30:18;;;;;;;7.07;6.38;;;;;;;20.79;100.00;100046.47;5131070;27;20019;-78
2023/06/09 11:32:47;;;;;;;7.35;6.65;;;;;;;20.83;100.00;100052.34;5131327;27;20031;-78
2023/06/09 11:35:31;;;;;;;7.78;7.07;;;;;;;20.84;100.00;100059.47;5131999;27;20022;-77
2023/06/09 11:38:10;;;;;;;7.78;6.80;;;;;;;20.81;100.00;100038.09;5130442;27;20046;-78
2023/06/09 11:40:48;;;;;;;9.10;6.75;;;;;;;20.93;100.00;100048.16;5131448;27;20490;-79
2023/06/09 11:43:13;;;;;;;7.43;6.60;;;;;;;20.93;100.00;100033.69;5128375;27;20031;-78
2023/06/09 11:45:39;;;;;;;7.00;6.40;;;;;;;21.01;100.00;100037.09;5131725;27;20054;-78
2023/06/09 11:48:08;;;;;;;7.25;6.57;;;;;;;21.03;100.00;100031.44;5131987;27;20372;-78
2023/06/09 11:50:44;;;;;;;7.30;6.60;;;;;;;21.05;100.00;100023.91;5130020;27;20026;-77
2023/06/09 11:53:13;;;;;;;7.60;6.88;;;;;;;21.07;100.00;100030.81;5131849;27;20027;-78
2023/06/09 11:55:39;;;;;;;7.80;7.05;;;;;;;21.12;100.00;100030.19;5130070;27;20031;-77
2023/06/09 11:58:08;;;;;;;7.05;6.45;;;;;;;21.14;100.00;100022.63;5131303;27;20015;-67